createdAt,value
2022-11-24T00:01:15.855Z,70.70
2022-11-24T00:03:43.955Z,70.80
2022-11-24T00:06:13.214Z,70.80
2022-11-24T00:08:42.671Z,70.90
2022-11-24T00:11:14.437Z,70.90
2022-11-24T00:13:41.339Z,71.00
2022-11-24T00:16:15.693Z,70.90
2022-11-24T00:18:45.248Z,71.20
2022-11-24T00:21:13.043Z,71.10
2022-11-24T00:23:39.936Z,71.00
2022-11-24T00:26:24.309Z,71.00
2022-11-24T00:28:53.844Z,71.20
2022-11-24T00:31:24.675Z,71.00
2022-11-24T00:33:53.463Z,71.10
2022-11-24T00:36:22.442Z,71.00
2022-11-24T00:38:57.211Z,71.00
2022-11-24T00:41:25.255Z,71.10
2022-11-24T00:43:52.971Z,70.90
2022-11-24T00:46:20.731Z,70.90
2022-11-24T00:48:48.028Z,70.90
2022-11-24T00:51:17.108Z,70.90
2022-11-24T00:53:44.635Z,71.00
2022-11-24T00:56:12.182Z,71.00
2022-11-24T00:58:39.622Z,70.90
2022-11-24T01:01:10.538Z,71.00
2022-11-24T01:03:37.746Z,70.90
2022-11-24T01:06:09.325Z,70.90
2022-11-24T01:08:38.574Z,71.00
2022-11-24T01:11:13.859Z,71.00
2022-11-24T01:13:41.681Z,71.90
2022-11-24T01:16:34.188Z,71.00
2022-11-24T01:19:01.680Z,71.20
2022-11-24T01:21:28.500Z,70.80
2022-11-24T01:23:55.624Z,70.80
2022-11-24T01:26:22.794Z,70.80
2022-11-24T01:28:56.974Z,70.80
2022-11-24T01:31:25.105Z,70.90
2022-11-24T01:33:52.749Z,70.70
2022-11-24T01:36:20.082Z,70.60
2022-11-24T01:38:46.967Z,70.70
2022-11-24T01:41:17.287Z,70.70
2022-11-24T01:43:45.471Z,70.70
2022-11-24T01:46:30.942Z,70.60
2022-11-24T01:49:24.548Z,69.50
2022-11-24T01:52:06.621Z,70.70
2022-11-24T01:54:39.549Z,70.80
2022-11-24T01:57:22.091Z,70.60
2022-11-24T01:59:51.795Z,70.90
2022-11-24T02:02:24.853Z,70.70
2022-11-24T02:04:52.083Z,70.80
2022-11-24T02:07:19.310Z,70.80
2022-11-24T02:09:51.614Z,70.80
2022-11-24T02:12:18.376Z,71.00
2022-11-24T02:14:45.935Z,70.80
2022-11-24T02:17:12.825Z,70.80
2022-11-24T02:19:39.565Z,70.70
2022-11-24T02:22:29.493Z,70.70
2022-11-24T02:25:14.597Z,70.80
2022-11-24T02:27:47.077Z,70.80
2022-11-24T02:30:17.834Z,70.60
2022-11-24T02:32:44.664Z,70.50
2022-11-24T02:35:14.113Z,70.50
2022-11-24T02:37:40.940Z,70.60
2022-11-24T02:40:08.634Z,70.60
2022-11-24T02:42:39.940Z,70.60
2022-11-24T02:45:09.158Z,70.60
2022-11-24T02:47:35.981Z,70.60
2022-11-24T02:50:02.911Z,70.60
2022-11-24T02:52:29.710Z,70.50
2022-11-24T02:54:56.610Z,70.60
2022-11-24T02:57:23.735Z,70.50
2022-11-24T02:59:50.712Z,70.60
2022-11-24T03:02:17.549Z,70.50
2022-11-24T03:04:44.662Z,70.60
2022-11-24T03:07:11.591Z,70.70
2022-11-24T03:09:38.420Z,70.70
2022-11-24T03:12:05.396Z,70.80
2022-11-24T03:14:32.418Z,70.70
2022-11-24T03:16:59.626Z,70.80
2022-11-24T03:19:26.373Z,70.90
2022-11-24T03:21:53.155Z,70.80
2022-11-24T03:24:19.929Z,70.90
2022-11-24T03:26:46.754Z,70.80
2022-11-24T03:29:13.526Z,70.80
2022-11-24T03:31:40.347Z,70.80
2022-11-24T03:34:07.219Z,70.90
2022-11-24T03:36:33.975Z,70.80
2022-11-24T03:39:00.954Z,70.90
2022-11-24T03:41:27.781Z,70.90
2022-11-24T03:43:54.638Z,70.90
2022-11-24T03:46:21.426Z,70.90
2022-11-24T03:48:48.518Z,70.80
2022-11-24T03:51:15.481Z,70.80
2022-11-24T03:53:42.416Z,70.80
2022-11-24T03:56:09.459Z,70.80
2022-11-24T03:58:36.521Z,70.80
2022-11-24T04:01:03.666Z,70.80
2022-11-24T04:03:30.500Z,70.80
2022-11-24T04:05:57.315Z,70.80
2022-11-24T04:08:24.072Z,70.80
2022-11-24T04:10:54.648Z,70.70
2022-11-24T04:13:24.516Z,70.80
2022-11-24T04:15:52.040Z,70.80
2022-11-24T04:18:19.670Z,70.80
2022-11-24T04:20:48.813Z,71.60
2022-11-24T04:23:15.687Z,70.90
2022-11-24T04:25:43.709Z,70.90
2022-11-24T04:28:12.079Z,70.90
2022-11-24T04:30:40.229Z,70.90
2022-11-24T04:33:06.996Z,71.10
2022-11-24T04:35:33.820Z,71.00
2022-11-24T04:38:04.053Z,71.00
2022-11-24T04:40:30.898Z,71.10
2022-11-24T04:42:58.134Z,71.10
2022-11-24T04:45:25.334Z,71.00
2022-11-24T04:47:52.115Z,71.00
2022-11-24T04:50:19.359Z,71.00
2022-11-24T04:52:46.126Z,70.90
2022-11-24T04:55:13.029Z,71.00
2022-11-24T04:57:39.878Z,71.10
2022-11-24T05:00:07.598Z,70.90
2022-11-24T05:02:34.380Z,70.90
2022-11-24T05:05:01.277Z,71.00
2022-11-24T05:07:28.156Z,70.80
2022-11-24T05:10:13.680Z,70.80
2022-11-24T05:12:40.715Z,70.80
2022-11-24T05:15:08.119Z,70.70
2022-11-24T05:17:37.959Z,71.40
2022-11-24T05:20:07.039Z,70.80
2022-11-24T05:22:33.821Z,70.80
2022-11-24T05:25:00.766Z,70.90
2022-11-24T05:27:27.690Z,70.80
2022-11-24T05:29:54.534Z,71.00
2022-11-24T05:32:21.319Z,70.90
2022-11-24T05:34:48.260Z,71.00
2022-11-24T05:37:15.221Z,70.90
2022-11-24T05:39:42.014Z,71.00
2022-11-24T05:42:28.113Z,70.90
2022-11-24T05:44:55.116Z,70.90
2022-11-24T05:47:22.150Z,70.80
2022-11-24T05:49:49.256Z,71.00
2022-11-24T05:52:16.815Z,70.90
2022-11-24T05:54:43.654Z,70.90
2022-11-24T05:57:10.432Z,70.80
2022-11-24T05:59:37.263Z,70.80
2022-11-24T06:02:04.320Z,70.80
2022-11-24T06:04:31.813Z,70.70
2022-11-24T06:06:58.783Z,70.60
2022-11-24T06:09:25.567Z,70.60
2022-11-24T06:11:52.495Z,70.70
2022-11-24T06:14:19.268Z,70.60
2022-11-24T06:16:46.264Z,70.60
2022-11-24T06:19:13.285Z,70.60
2022-11-24T06:21:40.067Z,70.50
2022-11-24T06:24:07.432Z,70.50
2022-11-24T06:26:34.309Z,70.60
2022-11-24T06:29:01.347Z,70.60
2022-11-24T06:31:28.154Z,70.70
2022-11-24T06:33:54.977Z,70.70
2022-11-24T06:36:21.793Z,70.80
2022-11-24T06:38:48.665Z,70.80
2022-11-24T06:41:16.909Z,70.80
2022-11-24T06:43:44.516Z,71.00
2022-11-24T06:46:12.791Z,71.60
2022-11-24T06:48:39.834Z,70.90
2022-11-24T06:51:10.264Z,70.90
2022-11-24T06:53:38.260Z,70.80
2022-11-24T06:56:16.676Z,70.90
2022-11-24T06:58:46.511Z,71.10
2022-11-24T07:01:32.292Z,71.00
2022-11-24T07:03:59.520Z,71.40
2022-11-24T07:06:28.368Z,71.10
2022-11-24T07:08:55.307Z,71.20
2022-11-24T07:11:23.778Z,71.20
2022-11-24T07:13:58.297Z,71.20
2022-11-24T07:16:27.221Z,71.30
2022-11-24T07:18:54.863Z,71.50
2022-11-24T07:21:23.834Z,71.10
2022-11-24T07:23:55.301Z,71.30
2022-11-24T07:26:22.825Z,71.40
2022-11-24T07:28:50.117Z,71.40
2022-11-24T07:31:19.849Z,71.40
2022-11-24T07:33:51.194Z,71.50
2022-11-24T07:36:18.069Z,71.60
2022-11-24T07:38:45.279Z,71.50
2022-11-24T07:41:13.506Z,71.40
2022-11-24T07:43:40.823Z,72.20
2022-11-24T07:46:10.559Z,71.30
2022-11-24T07:48:37.652Z,71.50
2022-11-24T07:51:05.979Z,71.50
2022-11-24T07:53:34.299Z,72.30
2022-11-24T07:56:02.949Z,71.60
2022-11-24T07:58:32.928Z,71.60
2022-11-24T08:01:00.951Z,71.50
2022-11-24T08:03:28.014Z,71.50
2022-11-24T08:06:23.232Z,71.50
2022-11-24T08:08:47.329Z,71.50
2022-11-24T08:11:17.296Z,71.50
2022-11-24T08:13:44.535Z,71.50
2022-11-24T08:16:14.883Z,71.50
2022-11-24T08:18:42.662Z,71.50
2022-11-24T08:21:14.039Z,71.50
2022-11-24T08:23:41.493Z,71.60
2022-11-24T08:26:15.999Z,71.50
2022-11-24T08:28:43.307Z,71.70
2022-11-24T08:31:13.079Z,70.10
2022-11-24T08:33:40.963Z,71.70
2022-11-24T08:36:10.947Z,71.70
2022-11-24T08:38:38.127Z,71.80
2022-11-24T08:41:07.764Z,71.80
2022-11-24T08:43:35.331Z,73.90
2022-11-24T08:46:04.503Z,71.90
2022-11-24T08:48:31.733Z,71.90
2022-11-24T08:50:59.415Z,71.90
2022-11-24T08:53:26.518Z,72.00
2022-11-24T08:55:53.401Z,72.00
2022-11-24T08:58:20.215Z,71.90
2022-11-24T09:00:47.000Z,71.90
2022-11-24T09:03:14.679Z,71.90
2022-11-24T09:05:57.255Z,71.80
2022-11-24T09:08:24.072Z,71.90
2022-11-24T09:10:51.577Z,71.70
2022-11-24T09:13:18.742Z,71.80
2022-11-24T09:15:45.676Z,71.90
2022-11-24T09:18:13.564Z,71.70
2022-11-24T09:20:40.761Z,71.80
2022-11-24T09:23:07.544Z,71.80
2022-11-24T09:25:34.386Z,71.90
2022-11-24T09:28:01.259Z,71.90
2022-11-24T09:30:28.627Z,71.90
2022-11-24T09:32:57.007Z,71.70
2022-11-24T09:35:24.630Z,71.70
2022-11-24T09:37:51.662Z,71.70
2022-11-24T09:40:18.614Z,71.70
2022-11-24T09:43:16.776Z,71.70
2022-11-24T09:46:07.681Z,72.40
2022-11-24T09:48:40.741Z,70.90
2022-11-24T09:51:12.005Z,71.60
2022-11-24T09:53:44.617Z,72.40
2022-11-24T09:56:22.391Z,71.70
2022-11-24T09:58:53.341Z,71.70
2022-11-24T10:01:28.149Z,71.70
2022-11-24T10:03:57.730Z,71.60
2022-11-24T10:07:19.177Z,71.60
2022-11-24T10:10:03.671Z,71.60
2022-11-24T10:12:33.336Z,71.50
2022-11-24T10:15:37.787Z,71.50
2022-11-24T10:18:04.812Z,71.30
2022-11-24T10:20:47.735Z,71.40
2022-11-24T10:23:20.418Z,71.30
2022-11-24T10:26:01.089Z,71.00
2022-11-24T10:28:35.923Z,70.70
2022-11-24T10:31:36.655Z,70.90
2022-11-24T10:34:23.118Z,70.60
2022-11-24T10:37:03.111Z,70.70
2022-11-24T10:39:43.724Z,70.60
2022-11-24T10:42:37.064Z,70.40
2022-11-24T10:45:19.147Z,70.20
2022-11-24T10:47:46.930Z,70.10
2022-11-24T10:50:35.770Z,70.10
2022-11-24T10:53:14.639Z,70.20
2022-11-24T10:55:56.575Z,70.10
2022-11-24T10:58:38.031Z,70.00
2022-11-24T11:01:14.469Z,70.00
2022-11-24T11:04:07.722Z,69.50
2022-11-24T11:06:36.323Z,69.60
2022-11-24T11:09:09.187Z,69.60
2022-11-24T11:11:39.169Z,69.30
2022-11-24T11:14:08.867Z,69.40
2022-11-24T11:16:40.553Z,69.10
2022-11-24T11:19:49.893Z,68.60
2022-11-24T11:22:25.952Z,68.30
2022-11-24T11:25:10.644Z,68.50
2022-11-24T11:27:39.126Z,68.20
2022-11-24T11:36:14.558Z,68.40
2022-11-24T11:38:43.025Z,68.50
2022-11-24T11:41:19.295Z,68.60
2022-11-24T11:43:50.497Z,68.30
2022-11-24T11:46:17.543Z,68.30
2022-11-24T11:48:46.968Z,68.20
2022-11-24T11:51:23.953Z,68.00
2022-11-24T11:54:22.938Z,67.60
2022-11-24T11:56:56.962Z,67.20
2022-11-24T11:59:45.423Z,67.60
2022-11-24T12:02:31.188Z,67.20
2022-11-24T12:05:10.206Z,67.70
2022-11-24T12:07:51.879Z,67.40
2022-11-24T12:10:33.095Z,67.50
2022-11-24T12:13:31.720Z,67.60
2022-11-24T12:16:29.746Z,67.10
2022-11-24T12:19:03.083Z,67.10
2022-11-24T12:22:01.784Z,67.00
2022-11-24T12:24:34.920Z,66.80
2022-11-24T12:27:10.127Z,66.70
2022-11-24T12:30:04.218Z,66.70
2022-11-24T12:32:49.342Z,66.40
2022-11-24T12:35:27.869Z,66.30
2022-11-24T12:37:57.761Z,66.30
2022-11-24T12:41:33.224Z,66.60
2022-11-24T12:43:53.396Z,66.20
2022-11-24T12:46:44.837Z,66.70
2022-11-24T12:49:35.131Z,66.10
2022-11-24T12:52:10.932Z,66.60
2022-11-24T12:54:40.953Z,66.20
2022-11-24T12:57:11.766Z,65.90
2022-11-24T12:59:57.082Z,66.00
2022-11-24T13:02:56.519Z,66.10
2022-11-24T13:05:59.267Z,67.40
2022-11-24T13:08:28.240Z,65.40
2022-11-24T13:11:05.322Z,65.80
2022-11-24T13:13:58.507Z,65.40
2022-11-24T13:16:59.349Z,64.80
2022-11-24T13:19:21.421Z,67.20
2022-11-24T13:21:57.031Z,64.90
2022-11-24T13:24:26.313Z,65.70
2022-11-24T13:27:19.682Z,65.00
2022-11-24T13:29:51.187Z,64.60
2022-11-24T13:32:21.210Z,64.90
2022-11-24T13:34:49.916Z,65.00
2022-11-24T13:37:28.928Z,65.10
2022-11-24T13:40:03.798Z,64.90
2022-11-24T13:42:42.804Z,65.00
2022-11-24T13:45:40.816Z,65.00
2022-11-24T13:48:20.491Z,64.40
2022-11-24T13:50:51.325Z,64.80
2022-11-24T13:53:35.287Z,64.70
2022-11-24T13:56:15.060Z,65.30
2022-11-24T13:58:49.042Z,64.10
2022-11-24T14:01:35.520Z,64.50
2022-11-24T14:04:30.428Z,64.40
2022-11-24T14:07:07.459Z,64.20
2022-11-24T14:09:42.073Z,64.60
2022-11-24T14:12:20.886Z,64.50
2022-11-24T14:14:53.111Z,64.10
2022-11-24T14:17:22.612Z,64.00
2022-11-24T14:19:51.893Z,64.00
2022-11-24T14:22:22.043Z,64.00
2022-11-24T14:25:00.023Z,63.80
2022-11-24T14:27:38.689Z,63.30
2022-11-24T14:30:21.924Z,63.40
2022-11-24T14:32:58.613Z,63.00
2022-11-24T14:35:34.409Z,62.90
2022-11-24T14:38:05.978Z,63.10
2022-11-24T14:40:48.467Z,62.90
2022-11-24T14:43:34.595Z,62.80
2022-11-24T14:46:09.122Z,62.70
2022-11-24T14:48:49.505Z,62.90
2022-11-24T14:51:25.667Z,62.60
2022-11-24T14:53:54.711Z,62.70
2022-11-24T14:56:26.565Z,62.80
2022-11-24T14:58:54.544Z,63.00
2022-11-24T15:01:29.263Z,63.00
2022-11-24T15:04:46.289Z,62.90
2022-11-24T15:07:21.209Z,62.50
2022-11-24T15:09:47.971Z,62.70
2022-11-24T15:12:24.658Z,62.80
2022-11-24T15:15:14.221Z,62.40
2022-11-24T15:17:55.095Z,62.10
2022-11-24T15:20:31.997Z,62.00
2022-11-24T15:23:25.234Z,62.00
2022-11-24T15:25:56.386Z,62.00
2022-11-24T15:28:26.028Z,62.20
2022-11-24T15:30:54.871Z,62.20
2022-11-24T15:33:23.206Z,62.10
2022-11-24T15:35:50.106Z,62.90
2022-11-24T15:38:18.234Z,62.20
2022-11-24T15:40:47.169Z,61.60
2022-11-24T15:43:30.512Z,62.20
2022-11-24T15:45:58.778Z,62.20
2022-11-24T15:48:26.070Z,62.40
2022-11-24T15:50:54.206Z,62.50
2022-11-24T15:53:32.655Z,62.30
2022-11-24T15:56:01.619Z,62.20
2022-11-24T15:58:28.425Z,63.10
2022-11-24T16:00:55.313Z,62.50
2022-11-24T16:06:19.062Z,62.50
2022-11-24T16:08:50.549Z,62.50
2022-11-24T16:11:17.364Z,62.50
2022-11-24T16:13:51.507Z,62.50
2022-11-24T16:16:20.385Z,62.70
2022-11-24T16:18:47.233Z,62.60
2022-11-24T16:21:14.064Z,62.80
2022-11-24T16:23:40.849Z,62.80
2022-11-24T16:26:07.880Z,62.80
2022-11-24T16:28:34.937Z,62.80
2022-11-24T16:31:01.843Z,62.90
2022-11-24T16:33:29.736Z,62.90
2022-11-24T16:35:56.526Z,62.90
2022-11-24T16:38:23.552Z,63.00
2022-11-24T16:40:52.462Z,63.10
2022-11-24T16:43:19.884Z,62.90
2022-11-24T16:45:46.781Z,62.90
2022-11-24T16:48:13.707Z,62.90
2022-11-24T16:50:41.038Z,63.10
2022-11-24T16:53:07.891Z,63.00
2022-11-24T16:55:34.679Z,63.00
2022-11-24T16:58:04.022Z,63.00
2022-11-24T17:00:30.793Z,63.10
2022-11-24T17:02:57.656Z,63.20
2022-11-24T17:05:25.555Z,63.30
2022-11-24T17:07:52.617Z,63.40
2022-11-24T17:10:19.713Z,63.40
2022-11-24T17:12:46.544Z,63.30
2022-11-24T17:20:46.974Z,63.20
2022-11-24T17:23:14.332Z,63.30
2022-11-24T17:25:41.266Z,63.30
2022-11-24T17:28:08.092Z,64.00
2022-11-24T17:30:37.015Z,63.30
2022-11-24T17:33:03.858Z,63.40
2022-11-24T17:35:30.657Z,63.20
2022-11-24T17:37:58.216Z,63.30
2022-11-24T17:40:29.339Z,63.30
2022-11-24T17:43:00.512Z,63.80
2022-11-24T17:45:28.593Z,63.60
2022-11-24T17:47:56.191Z,63.50
2022-11-24T17:50:26.124Z,63.60
2022-11-24T17:52:54.228Z,63.50
2022-11-24T17:55:21.720Z,63.50
2022-11-24T17:57:48.713Z,63.40
2022-11-24T18:00:15.977Z,61.10
2022-11-24T18:02:43.407Z,63.30
2022-11-24T18:05:10.182Z,63.20
2022-11-24T18:07:37.172Z,63.10
2022-11-24T18:10:04.660Z,63.10
2022-11-24T18:12:32.465Z,63.30
2022-11-24T18:14:59.826Z,63.50
2022-11-24T18:17:28.987Z,63.40
2022-11-24T18:19:55.959Z,63.50
2022-11-24T18:22:42.976Z,63.60
2022-11-24T18:25:09.940Z,64.40
2022-11-24T18:27:36.719Z,63.70
2022-11-24T18:30:04.924Z,63.70
2022-11-24T18:32:33.005Z,63.70
2022-11-24T18:35:00.541Z,63.40
2022-11-24T18:37:30.651Z,63.70
2022-11-24T18:39:57.579Z,63.90
2022-11-24T18:42:25.686Z,63.90
2022-11-24T18:44:54.337Z,64.10
2022-11-24T18:47:21.201Z,64.10
2022-11-24T18:49:48.410Z,64.20
2022-11-24T18:52:15.799Z,64.30
2022-11-24T18:54:42.643Z,65.10
2022-11-24T18:57:09.404Z,64.50
2022-11-24T18:59:36.801Z,64.60
2022-11-24T19:02:03.752Z,64.70
2022-11-24T19:04:31.001Z,64.70
2022-11-24T19:06:58.368Z,64.70
2022-11-24T19:09:25.598Z,64.80
2022-11-24T19:11:52.445Z,64.70
2022-11-24T19:14:19.435Z,64.60
2022-11-24T19:16:48.202Z,64.60
2022-11-24T19:19:16.962Z,64.50
2022-11-24T19:21:44.221Z,64.50
2022-11-24T19:24:13.247Z,64.40
2022-11-24T19:26:40.562Z,64.40
2022-11-24T19:29:08.270Z,64.30
2022-11-24T19:31:36.293Z,64.20
2022-11-24T19:34:05.308Z,64.30
2022-11-24T19:36:32.594Z,64.40
2022-11-24T19:38:59.956Z,64.50
2022-11-24T19:41:30.002Z,65.80
2022-11-24T19:43:58.417Z,64.50
2022-11-24T19:46:27.737Z,64.40
2022-11-24T19:48:57.289Z,64.40
2022-11-24T19:51:32.579Z,64.50
2022-11-24T19:54:00.059Z,64.80
2022-11-24T19:56:29.567Z,64.70
2022-11-24T19:58:56.865Z,64.60
2022-11-24T20:01:26.784Z,64.70
2022-11-24T20:04:00.006Z,64.60
2022-11-24T20:06:29.424Z,64.60
2022-11-24T20:08:58.525Z,64.60
2022-11-24T20:11:25.453Z,64.80
2022-11-24T20:13:52.343Z,64.70
2022-11-24T20:16:26.212Z,64.80
2022-11-24T20:18:55.201Z,64.80
2022-11-24T20:21:24.433Z,64.90
2022-11-24T20:23:57.038Z,64.90
2022-11-24T20:26:26.295Z,65.10
2022-11-24T20:28:55.147Z,65.10
2022-11-24T20:31:46.306Z,65.10
2022-11-24T20:34:14.744Z,65.00
2022-11-24T20:36:43.590Z,64.90
2022-11-24T20:39:14.724Z,64.80
2022-11-24T20:41:41.911Z,64.90
2022-11-24T20:44:13.206Z,64.80
2022-11-24T20:46:40.470Z,65.10
2022-11-24T20:49:08.929Z,65.00
2022-11-24T20:51:39.697Z,65.10
2022-11-24T20:54:08.353Z,65.10
2022-11-24T20:56:39.785Z,64.90
2022-11-24T20:59:07.331Z,65.00
2022-11-24T21:01:38.491Z,65.10
2022-11-24T21:04:12.147Z,65.10
2022-11-24T21:06:39.550Z,65.30
2022-11-24T21:09:08.619Z,65.20
2022-11-24T21:11:36.754Z,65.30
2022-11-24T21:14:04.213Z,65.30
2022-11-24T21:16:33.623Z,65.30
2022-11-24T21:19:05.842Z,65.10
2022-11-24T21:21:35.580Z,64.80
2022-11-24T21:24:09.698Z,65.00
2022-11-24T21:26:38.148Z,64.70
2022-11-24T21:29:06.804Z,64.70
2022-11-24T21:31:38.437Z,64.60
2022-11-24T21:34:06.642Z,64.80
2022-11-24T21:36:35.213Z,64.80
2022-11-24T21:39:03.951Z,64.90
2022-11-24T21:41:33.168Z,64.80
2022-11-24T21:43:59.975Z,64.80
2022-11-24T21:46:29.009Z,64.80
2022-11-24T21:48:55.907Z,64.80
2022-11-24T21:51:22.876Z,64.80
2022-11-24T21:53:49.762Z,65.00
2022-11-24T21:56:18.747Z,65.00
2022-11-24T21:58:51.485Z,65.00
2022-11-24T22:01:19.973Z,65.00
2022-11-24T22:03:46.900Z,65.10
2022-11-24T22:06:15.355Z,65.00
2022-11-24T22:08:42.473Z,65.50
2022-11-24T22:11:23.787Z,64.60
2022-11-24T22:13:51.562Z,64.60
2022-11-24T22:16:23.416Z,64.60
2022-11-24T22:18:51.128Z,65.00
2022-11-24T22:21:33.547Z,64.80
2022-11-24T22:24:01.122Z,65.00
2022-11-24T22:26:28.652Z,65.00
2022-11-24T22:28:56.928Z,65.00
2022-11-24T22:31:29.739Z,65.10
2022-11-24T22:33:57.842Z,65.00
2022-11-24T22:36:26.934Z,65.00
2022-11-24T22:38:55.867Z,65.00
2022-11-24T22:41:23.169Z,65.10
2022-11-24T22:43:50.305Z,65.10
2022-11-24T22:46:23.160Z,65.30
2022-11-24T22:48:52.929Z,65.30
2022-11-24T22:51:26.099Z,65.10
2022-11-24T22:53:55.204Z,65.20
2022-11-24T22:56:22.235Z,65.20
2022-11-24T22:58:49.334Z,65.20
2022-11-24T23:01:18.550Z,65.10
2022-11-24T23:03:46.060Z,65.10
2022-11-24T23:06:18.547Z,65.10
2022-11-24T23:08:45.309Z,65.00
2022-11-24T23:11:29.087Z,64.90
2022-11-24T23:14:00.416Z,64.90
2022-11-24T23:16:28.851Z,65.00
2022-11-24T23:18:55.997Z,65.00
2022-11-24T23:21:28.088Z,65.00
2022-11-24T23:23:55.418Z,65.10
2022-11-24T23:26:24.568Z,65.10
2022-11-24T23:28:51.871Z,65.00
2022-11-24T23:31:21.511Z,64.90
2022-11-24T23:33:48.464Z,64.80
2022-11-24T23:36:17.734Z,64.80
2022-11-24T23:38:45.364Z,64.90
2022-11-24T23:41:15.177Z,65.00
2022-11-24T23:43:42.926Z,65.00
2022-11-24T23:46:11.599Z,65.00
2022-11-24T23:48:39.182Z,64.90
2022-11-24T23:51:25.357Z,64.90
2022-11-24T23:53:52.927Z,65.00
2022-11-24T23:56:22.063Z,65.10
2022-11-24T23:58:49.108Z,65.20
